sensor_id;sensor_type;location;lat;lon;timestamp;P1;durP1;ratioP1;P2;durP2;ratioP2
69890;SDS011;57170;43.964;21.262;2023-12-20T00:01:40;74.90;;;54.05;;
69890;SDS011;57170;43.964;21.262;2023-12-20T00:04:06;70.50;;;49.08;;
69890;SDS011;57170;43.964;21.262;2023-12-20T00:06:32;72.45;;;52.30;;
69890;SDS011;57170;43.964;21.262;2023-12-20T00:08:59;70.53;;;49.72;;
69890;SDS011;57170;43.964;21.262;2023-12-20T00:11:25;66.90;;;50.08;;
69890;SDS011;57170;43.964;21.262;2023-12-20T00:13:51;75.82;;;52.03;;
69890;SDS011;57170;43.964;21.262;2023-12-20T00:16:18;61.00;;;45.97;;
69890;SDS011;57170;43.964;21.262;2023-12-20T00:18:44;57.97;;;45.40;;
69890;SDS011;57170;43.964;21.262;2023-12-20T00:21:11;67.97;;;48.25;;
69890;SDS011;57170;43.964;21.262;2023-12-20T00:23:37;66.88;;;46.90;;
69890;SDS011;57170;43.964;21.262;2023-12-20T00:26:03;67.10;;;49.60;;
69890;SDS011;57170;43.964;21.262;2023-12-20T00:28:30;67.47;;;48.17;;
69890;SDS011;57170;43.964;21.262;2023-12-20T00:30:57;78.10;;;51.75;;
69890;SDS011;57170;43.964;21.262;2023-12-20T00:33:23;87.45;;;60.85;;
69890;SDS011;57170;43.964;21.262;2023-12-20T00:35:50;71.07;;;52.83;;
69890;SDS011;57170;43.964;21.262;2023-12-20T00:38:16;81.85;;;58.05;;
69890;SDS011;57170;43.964;21.262;2023-12-20T00:40:42;93.25;;;63.55;;
69890;SDS011;57170;43.964;21.262;2023-12-20T00:43:08;102.97;;;71.85;;
69890;SDS011;57170;43.964;21.262;2023-12-20T00:45:34;73.13;;;51.53;;
69890;SDS011;57170;43.964;21.262;2023-12-20T00:48:00;78.47;;;55.97;;
69890;SDS011;57170;43.964;21.262;2023-12-20T00:50:26;74.30;;;52.55;;
69890;SDS011;57170;43.964;21.262;2023-12-20T00:52:52;65.70;;;49.70;;
69890;SDS011;57170;43.964;21.262;2023-12-20T00:55:19;84.15;;;54.33;;
69890;SDS011;57170;43.964;21.262;2023-12-20T00:57:45;93.75;;;61.50;;
69890;SDS011;57170;43.964;21.262;2023-12-20T01:00:12;82.20;;;59.25;;
69890;SDS011;57170;43.964;21.262;2023-12-20T01:02:38;78.00;;;55.13;;
69890;SDS011;57170;43.964;21.262;2023-12-20T01:05:05;59.00;;;47.83;;
69890;SDS011;57170;43.964;21.262;2023-12-20T01:07:32;71.70;;;52.33;;
69890;SDS011;57170;43.964;21.262;2023-12-20T01:09:58;61.65;;;47.33;;
69890;SDS011;57170;43.964;21.262;2023-12-20T01:12:24;59.88;;;44.90;;
69890;SDS011;57170;43.964;21.262;2023-12-20T01:14:50;61.97;;;42.88;;
69890;SDS011;57170;43.964;21.262;2023-12-20T01:17:16;68.03;;;47.53;;
69890;SDS011;57170;43.964;21.262;2023-12-20T01:19:42;57.08;;;43.00;;
69890;SDS011;57170;43.964;21.262;2023-12-20T01:22:08;58.95;;;45.15;;
69890;SDS011;57170;43.964;21.262;2023-12-20T01:24:34;62.88;;;45.88;;
69890;SDS011;57170;43.964;21.262;2023-12-20T01:27:01;52.03;;;41.05;;
69890;SDS011;57170;43.964;21.262;2023-12-20T01:29:27;51.03;;;39.13;;
69890;SDS011;57170;43.964;21.262;2023-12-20T01:31:53;58.38;;;41.95;;
69890;SDS011;57170;43.964;21.262;2023-12-20T01:34:19;58.10;;;42.42;;
69890;SDS011;57170;43.964;21.262;2023-12-20T01:36:46;56.95;;;41.85;;
69890;SDS011;57170;43.964;21.262;2023-12-20T01:39:12;56.55;;;40.03;;
69890;SDS011;57170;43.964;21.262;2023-12-20T01:41:38;57.67;;;40.53;;
69890;SDS011;57170;43.964;21.262;2023-12-20T01:44:05;56.13;;;40.63;;
69890;SDS011;57170;43.964;21.262;2023-12-20T01:46:31;51.33;;;37.03;;
69890;SDS011;57170;43.964;21.262;2023-12-20T01:48:57;49.42;;;36.42;;
69890;SDS011;57170;43.964;21.262;2023-12-20T01:51:24;55.72;;;36.58;;
69890;SDS011;57170;43.964;21.262;2023-12-20T01:53:52;47.65;;;36.05;;
69890;SDS011;57170;43.964;21.262;2023-12-20T01:56:19;53.67;;;37.78;;
69890;SDS011;57170;43.964;21.262;2023-12-20T01:58:46;51.40;;;37.17;;
69890;SDS011;57170;43.964;21.262;2023-12-20T02:01:12;50.90;;;38.22;;
69890;SDS011;57170;43.964;21.262;2023-12-20T02:03:40;43.05;;;33.58;;
69890;SDS011;57170;43.964;21.262;2023-12-20T02:06:06;51.40;;;36.05;;
69890;SDS011;57170;43.964;21.262;2023-12-20T02:08:33;48.92;;;35.40;;
69890;SDS011;57170;43.964;21.262;2023-12-20T02:10:59;44.63;;;32.97;;
69890;SDS011;57170;43.964;21.262;2023-12-20T02:13:26;50.03;;;35.80;;
69890;SDS011;57170;43.964;21.262;2023-12-20T02:15:52;55.90;;;39.33;;
69890;SDS011;57170;43.964;21.262;2023-12-20T02:18:18;49.92;;;35.08;;
69890;SDS011;57170;43.964;21.262;2023-12-20T02:20:44;43.97;;;35.15;;
69890;SDS011;57170;43.964;21.262;2023-12-20T02:23:10;45.78;;;35.75;;
69890;SDS011;57170;43.964;21.262;2023-12-20T02:25:36;48.67;;;35.55;;
69890;SDS011;57170;43.964;21.262;2023-12-20T02:28:03;45.78;;;32.67;;
69890;SDS011;57170;43.964;21.262;2023-12-20T02:30:29;45.05;;;30.63;;
69890;SDS011;57170;43.964;21.262;2023-12-20T02:32:55;44.67;;;33.75;;
69890;SDS011;57170;43.964;21.262;2023-12-20T02:35:22;50.40;;;34.78;;
69890;SDS011;57170;43.964;21.262;2023-12-20T02:37:48;47.97;;;32.72;;
69890;SDS011;57170;43.964;21.262;2023-12-20T02:40:14;46.38;;;35.20;;
69890;SDS011;57170;43.964;21.262;2023-12-20T02:42:40;46.47;;;31.38;;
69890;SDS011;57170;43.964;21.262;2023-12-20T02:45:07;42.92;;;30.48;;
69890;SDS011;57170;43.964;21.262;2023-12-20T02:47:33;44.45;;;34.55;;
69890;SDS011;57170;43.964;21.262;2023-12-20T02:49:59;47.97;;;37.00;;
69890;SDS011;57170;43.964;21.262;2023-12-20T02:52:25;53.72;;;40.90;;
69890;SDS011;57170;43.964;21.262;2023-12-20T02:54:51;46.05;;;34.05;;
69890;SDS011;57170;43.964;21.262;2023-12-20T02:57:17;47.58;;;34.22;;
69890;SDS011;57170;43.964;21.262;2023-12-20T02:59:44;47.28;;;35.25;;
69890;SDS011;57170;43.964;21.262;2023-12-20T03:02:10;49.35;;;35.80;;
69890;SDS011;57170;43.964;21.262;2023-12-20T03:04:36;58.60;;;40.75;;
69890;SDS011;57170;43.964;21.262;2023-12-20T03:07:02;54.20;;;36.65;;
69890;SDS011;57170;43.964;21.262;2023-12-20T03:09:28;62.58;;;39.40;;
69890;SDS011;57170;43.964;21.262;2023-12-20T03:11:54;63.05;;;42.45;;
69890;SDS011;57170;43.964;21.262;2023-12-20T03:14:20;44.40;;;34.33;;
69890;SDS011;57170;43.964;21.262;2023-12-20T03:16:50;53.10;;;38.78;;
69890;SDS011;57170;43.964;21.262;2023-12-20T03:19:16;50.88;;;34.67;;
69890;SDS011;57170;43.964;21.262;2023-12-20T03:21:42;47.75;;;33.78;;
69890;SDS011;57170;43.964;21.262;2023-12-20T03:24:08;48.28;;;33.45;;
69890;SDS011;57170;43.964;21.262;2023-12-20T03:26:34;41.22;;;31.70;;
69890;SDS011;57170;43.964;21.262;2023-12-20T03:29:00;46.55;;;34.28;;
69890;SDS011;57170;43.964;21.262;2023-12-20T03:31:26;49.38;;;35.22;;
69890;SDS011;57170;43.964;21.262;2023-12-20T03:33:52;48.22;;;33.58;;
69890;SDS011;57170;43.964;21.262;2023-12-20T03:36:19;49.58;;;33.17;;
69890;SDS011;57170;43.964;21.262;2023-12-20T03:38:45;44.50;;;33.30;;
69890;SDS011;57170;43.964;21.262;2023-12-20T03:41:12;45.28;;;34.25;;
69890;SDS011;57170;43.964;21.262;2023-12-20T03:43:38;49.55;;;33.15;;
69890;SDS011;57170;43.964;21.262;2023-12-20T03:46:05;46.90;;;34.10;;
69890;SDS011;57170;43.964;21.262;2023-12-20T03:48:31;48.03;;;30.60;;
69890;SDS011;57170;43.964;21.262;2023-12-20T03:50:57;46.90;;;34.15;;
69890;SDS011;57170;43.964;21.262;2023-12-20T03:53:23;49.78;;;34.25;;
69890;SDS011;57170;43.964;21.262;2023-12-20T03:55:49;47.35;;;32.58;;
69890;SDS011;57170;43.964;21.262;2023-12-20T03:58:16;52.55;;;34.38;;
69890;SDS011;57170;43.964;21.262;2023-12-20T04:00:42;41.90;;;31.48;;
69890;SDS011;57170;43.964;21.262;2023-12-20T04:03:08;52.90;;;37.28;;
69890;SDS011;57170;43.964;21.262;2023-12-20T04:05:34;45.30;;;35.45;;
69890;SDS011;57170;43.964;21.262;2023-12-20T04:08:01;48.55;;;34.72;;
69890;SDS011;57170;43.964;21.262;2023-12-20T04:10:27;47.58;;;34.40;;
69890;SDS011;57170;43.964;21.262;2023-12-20T04:12:53;45.42;;;32.65;;
69890;SDS011;57170;43.964;21.262;2023-12-20T04:15:20;46.13;;;32.70;;
69890;SDS011;57170;43.964;21.262;2023-12-20T04:17:46;44.72;;;35.67;;
69890;SDS011;57170;43.964;21.262;2023-12-20T04:20:12;48.05;;;35.05;;
69890;SDS011;57170;43.964;21.262;2023-12-20T04:22:38;47.10;;;33.72;;
69890;SDS011;57170;43.964;21.262;2023-12-20T04:25:05;57.70;;;40.70;;
69890;SDS011;57170;43.964;21.262;2023-12-20T04:27:31;48.03;;;32.53;;
69890;SDS011;57170;43.964;21.262;2023-12-20T04:29:57;42.33;;;33.47;;
69890;SDS011;57170;43.964;21.262;2023-12-20T04:32:23;37.50;;;30.08;;
69890;SDS011;57170;43.964;21.262;2023-12-20T04:34:49;38.67;;;30.20;;
69890;SDS011;57170;43.964;21.262;2023-12-20T04:37:15;48.75;;;35.55;;
69890;SDS011;57170;43.964;21.262;2023-12-20T04:39:41;45.75;;;33.17;;
69890;SDS011;57170;43.964;21.262;2023-12-20T04:42:08;43.10;;;32.03;;
69890;SDS011;57170;43.964;21.262;2023-12-20T04:44:34;43.50;;;33.38;;
69890;SDS011;57170;43.964;21.262;2023-12-20T04:47:00;66.30;;;49.25;;
69890;SDS011;57170;43.964;21.262;2023-12-20T04:49:26;48.33;;;33.33;;
69890;SDS011;57170;43.964;21.262;2023-12-20T04:51:52;50.50;;;35.38;;
69890;SDS011;57170;43.964;21.262;2023-12-20T04:54:18;46.70;;;34.22;;
69890;SDS011;57170;43.964;21.262;2023-12-20T04:56:44;54.13;;;40.28;;
69890;SDS011;57170;43.964;21.262;2023-12-20T04:59:10;52.08;;;37.72;;
69890;SDS011;57170;43.964;21.262;2023-12-20T05:01:37;49.22;;;35.80;;
69890;SDS011;57170;43.964;21.262;2023-12-20T05:04:03;72.22;;;52.97;;
69890;SDS011;57170;43.964;21.262;2023-12-20T05:06:29;58.20;;;42.88;;
69890;SDS011;57170;43.964;21.262;2023-12-20T05:08:55;52.97;;;39.15;;
69890;SDS011;57170;43.964;21.262;2023-12-20T05:11:21;63.80;;;44.08;;
69890;SDS011;57170;43.964;21.262;2023-12-20T05:13:47;71.20;;;51.65;;
69890;SDS011;57170;43.964;21.262;2023-12-20T05:16:13;74.80;;;52.00;;
69890;SDS011;57170;43.964;21.262;2023-12-20T05:18:40;76.88;;;54.92;;
69890;SDS011;57170;43.964;21.262;2023-12-20T05:21:06;76.57;;;54.40;;
69890;SDS011;57170;43.964;21.262;2023-12-20T05:23:32;76.80;;;56.28;;
69890;SDS011;57170;43.964;21.262;2023-12-20T05:25:58;77.70;;;56.80;;
69890;SDS011;57170;43.964;21.262;2023-12-20T05:28:24;74.32;;;53.55;;
69890;SDS011;57170;43.964;21.262;2023-12-20T05:30:51;69.82;;;49.00;;
69890;SDS011;57170;43.964;21.262;2023-12-20T05:33:17;73.38;;;51.33;;
69890;SDS011;57170;43.964;21.262;2023-12-20T05:35:43;89.90;;;63.50;;
69890;SDS011;57170;43.964;21.262;2023-12-20T05:38:09;78.43;;;56.55;;
69890;SDS011;57170;43.964;21.262;2023-12-20T05:40:35;75.57;;;55.78;;
69890;SDS011;57170;43.964;21.262;2023-12-20T05:43:02;87.57;;;63.17;;
69890;SDS011;57170;43.964;21.262;2023-12-20T05:45:28;97.15;;;70.53;;
69890;SDS011;57170;43.964;21.262;2023-12-20T05:47:54;88.15;;;63.28;;
69890;SDS011;57170;43.964;21.262;2023-12-20T05:50:20;109.63;;;79.95;;
69890;SDS011;57170;43.964;21.262;2023-12-20T05:52:46;98.30;;;75.53;;
69890;SDS011;57170;43.964;21.262;2023-12-20T05:55:13;105.97;;;76.22;;
69890;SDS011;57170;43.964;21.262;2023-12-20T05:57:39;102.03;;;71.88;;
69890;SDS011;57170;43.964;21.262;2023-12-20T06:00:05;101.10;;;77.57;;
69890;SDS011;57170;43.964;21.262;2023-12-20T06:02:31;96.88;;;74.30;;
69890;SDS011;57170;43.964;21.262;2023-12-20T06:04:58;104.10;;;73.35;;
69890;SDS011;57170;43.964;21.262;2023-12-20T06:07:24;96.40;;;70.65;;
69890;SDS011;57170;43.964;21.262;2023-12-20T06:09:50;96.60;;;70.07;;
69890;SDS011;57170;43.964;21.262;2023-12-20T06:12:16;88.63;;;67.07;;
69890;SDS011;57170;43.964;21.262;2023-12-20T06:14:42;82.43;;;62.80;;
69890;SDS011;57170;43.964;21.262;2023-12-20T06:17:08;78.15;;;59.13;;
69890;SDS011;57170;43.964;21.262;2023-12-20T06:19:34;91.57;;;67.93;;
69890;SDS011;57170;43.964;21.262;2023-12-20T06:22:00;86.65;;;65.15;;
69890;SDS011;57170;43.964;21.262;2023-12-20T06:24:26;105.22;;;75.15;;
69890;SDS011;57170;43.964;21.262;2023-12-20T06:26:53;81.85;;;60.60;;
69890;SDS011;57170;43.964;21.262;2023-12-20T06:29:22;77.68;;;55.58;;
69890;SDS011;57170;43.964;21.262;2023-12-20T06:31:49;79.28;;;59.08;;
69890;SDS011;57170;43.964;21.262;2023-12-20T06:34:15;99.35;;;71.95;;
69890;SDS011;57170;43.964;21.262;2023-12-20T06:36:41;106.75;;;81.13;;
69890;SDS011;57170;43.964;21.262;2023-12-20T06:39:07;111.85;;;85.30;;
69890;SDS011;57170;43.964;21.262;2023-12-20T06:41:33;86.07;;;62.60;;
69890;SDS011;57170;43.964;21.262;2023-12-20T06:44:00;110.30;;;81.03;;
69890;SDS011;57170;43.964;21.262;2023-12-20T06:46:26;107.68;;;77.93;;
69890;SDS011;57170;43.964;21.262;2023-12-20T06:48:52;108.85;;;80.57;;
69890;SDS011;57170;43.964;21.262;2023-12-20T06:51:18;109.03;;;82.63;;
69890;SDS011;57170;43.964;21.262;2023-12-20T06:53:45;108.03;;;80.22;;
69890;SDS011;57170;43.964;21.262;2023-12-20T06:56:11;110.25;;;80.43;;
69890;SDS011;57170;43.964;21.262;2023-12-20T06:58:37;117.88;;;83.80;;
69890;SDS011;57170;43.964;21.262;2023-12-20T07:01:03;110.28;;;79.90;;
69890;SDS011;57170;43.964;21.262;2023-12-20T07:03:30;113.38;;;85.28;;
69890;SDS011;57170;43.964;21.262;2023-12-20T07:05:57;109.28;;;79.20;;
69890;SDS011;57170;43.964;21.262;2023-12-20T07:08:23;117.78;;;82.13;;
69890;SDS011;57170;43.964;21.262;2023-12-20T07:10:49;89.85;;;67.22;;
69890;SDS011;57170;43.964;21.262;2023-12-20T07:13:15;108.70;;;75.78;;
69890;SDS011;57170;43.964;21.262;2023-12-20T07:15:41;104.47;;;77.32;;
69890;SDS011;57170;43.964;21.262;2023-12-20T07:18:08;96.43;;;76.40;;
69890;SDS011;57170;43.964;21.262;2023-12-20T07:20:34;111.10;;;78.97;;
69890;SDS011;57170;43.964;21.262;2023-12-20T07:23:00;110.35;;;78.00;;
69890;SDS011;57170;43.964;21.262;2023-12-20T07:25:26;103.20;;;78.75;;
69890;SDS011;57170;43.964;21.262;2023-12-20T07:27:52;95.75;;;72.63;;
69890;SDS011;57170;43.964;21.262;2023-12-20T07:30:18;114.07;;;87.35;;
69890;SDS011;57170;43.964;21.262;2023-12-20T07:32:45;117.63;;;86.72;;
69890;SDS011;57170;43.964;21.262;2023-12-20T07:35:12;114.13;;;87.45;;
69890;SDS011;57170;43.964;21.262;2023-12-20T07:37:38;112.80;;;89.03;;
69890;SDS011;57170;43.964;21.262;2023-12-20T07:40:04;132.10;;;100.43;;
69890;SDS011;57170;43.964;21.262;2023-12-20T07:42:30;126.13;;;96.05;;
69890;SDS011;57170;43.964;21.262;2023-12-20T07:44:57;127.18;;;102.25;;
69890;SDS011;57170;43.964;21.262;2023-12-20T07:47:23;134.88;;;106.05;;
69890;SDS011;57170;43.964;21.262;2023-12-20T07:49:50;107.18;;;87.80;;
69890;SDS011;57170;43.964;21.262;2023-12-20T07:52:19;114.57;;;89.43;;
69890;SDS011;57170;43.964;21.262;2023-12-20T07:54:47;98.90;;;72.63;;
69890;SDS011;57170;43.964;21.262;2023-12-20T07:57:13;97.07;;;76.38;;
69890;SDS011;57170;43.964;21.262;2023-12-20T07:59:39;104.03;;;81.53;;
69890;SDS011;57170;43.964;21.262;2023-12-20T08:02:06;93.70;;;76.95;;
69890;SDS011;57170;43.964;21.262;2023-12-20T08:04:32;94.22;;;73.90;;
69890;SDS011;57170;43.964;21.262;2023-12-20T08:06:58;97.95;;;79.32;;
69890;SDS011;57170;43.964;21.262;2023-12-20T08:09:25;104.30;;;81.22;;
69890;SDS011;57170;43.964;21.262;2023-12-20T08:11:51;101.07;;;78.57;;
69890;SDS011;57170;43.964;21.262;2023-12-20T08:14:17;108.45;;;81.75;;
69890;SDS011;57170;43.964;21.262;2023-12-20T08:16:43;113.45;;;87.18;;
69890;SDS011;57170;43.964;21.262;2023-12-20T08:19:09;112.68;;;82.22;;
69890;SDS011;57170;43.964;21.262;2023-12-20T08:21:35;102.68;;;81.13;;
69890;SDS011;57170;43.964;21.262;2023-12-20T08:24:02;101.22;;;79.68;;
69890;SDS011;57170;43.964;21.262;2023-12-20T08:26:28;97.35;;;77.78;;
69890;SDS011;57170;43.964;21.262;2023-12-20T08:28:54;103.30;;;83.75;;
69890;SDS011;57170;43.964;21.262;2023-12-20T08:31:20;98.25;;;83.63;;
69890;SDS011;57170;43.964;21.262;2023-12-20T08:33:47;91.00;;;76.72;;
69890;SDS011;57170;43.964;21.262;2023-12-20T08:36:15;77.55;;;66.70;;
69890;SDS011;57170;43.964;21.262;2023-12-20T08:38:43;90.28;;;69.47;;
69890;SDS011;57170;43.964;21.262;2023-12-20T08:41:09;88.70;;;75.85;;
69890;SDS011;57170;43.964;21.262;2023-12-20T08:43:35;94.60;;;77.25;;
69890;SDS011;57170;43.964;21.262;2023-12-20T08:46:01;80.57;;;71.03;;
69890;SDS011;57170;43.964;21.262;2023-12-20T08:48:28;93.32;;;74.55;;
69890;SDS011;57170;43.964;21.262;2023-12-20T08:50:54;100.60;;;82.55;;
69890;SDS011;57170;43.964;21.262;2023-12-20T08:53:20;93.45;;;77.00;;
69890;SDS011;57170;43.964;21.262;2023-12-20T08:55:46;100.63;;;89.35;;
69890;SDS011;57170;43.964;21.262;2023-12-20T08:58:13;109.80;;;89.72;;
69890;SDS011;57170;43.964;21.262;2023-12-20T09:00:39;106.00;;;81.47;;
69890;SDS011;57170;43.964;21.262;2023-12-20T09:03:05;96.57;;;80.70;;
69890;SDS011;57170;43.964;21.262;2023-12-20T09:05:31;97.15;;;79.45;;
69890;SDS011;57170;43.964;21.262;2023-12-20T09:07:57;96.50;;;77.35;;
69890;SDS011;57170;43.964;21.262;2023-12-20T09:10:23;100.10;;;80.28;;
69890;SDS011;57170;43.964;21.262;2023-12-20T09:12:53;98.60;;;81.93;;
69890;SDS011;57170;43.964;21.262;2023-12-20T09:15:23;96.40;;;74.82;;
69890;SDS011;57170;43.964;21.262;2023-12-20T09:17:49;85.68;;;70.07;;
69890;SDS011;57170;43.964;21.262;2023-12-20T09:20:15;88.95;;;69.40;;
69890;SDS011;57170;43.964;21.262;2023-12-20T09:22:41;79.35;;;65.68;;
69890;SDS011;57170;43.964;21.262;2023-12-20T09:25:09;67.82;;;55.08;;
69890;SDS011;57170;43.964;21.262;2023-12-20T09:27:36;67.57;;;51.90;;
69890;SDS011;57170;43.964;21.262;2023-12-20T09:30:02;60.20;;;45.88;;
69890;SDS011;57170;43.964;21.262;2023-12-20T09:32:30;52.28;;;43.03;;
69890;SDS011;57170;43.964;21.262;2023-12-20T09:34:56;47.55;;;39.72;;
69890;SDS011;57170;43.964;21.262;2023-12-20T09:37:22;49.58;;;39.20;;
69890;SDS011;57170;43.964;21.262;2023-12-20T09:39:49;53.05;;;41.83;;
69890;SDS011;57170;43.964;21.262;2023-12-20T09:42:16;47.78;;;36.88;;
69890;SDS011;57170;43.964;21.262;2023-12-20T09:44:43;43.00;;;37.92;;
69890;SDS011;57170;43.964;21.262;2023-12-20T09:47:09;62.15;;;46.65;;
69890;SDS011;57170;43.964;21.262;2023-12-20T09:49:35;52.38;;;40.72;;
69890;SDS011;57170;43.964;21.262;2023-12-20T09:52:02;48.97;;;39.65;;
69890;SDS011;57170;43.964;21.262;2023-12-20T09:54:30;49.42;;;38.67;;
69890;SDS011;57170;43.964;21.262;2023-12-20T09:56:56;46.50;;;38.55;;
69890;SDS011;57170;43.964;21.262;2023-12-20T09:59:22;44.25;;;35.45;;
69890;SDS011;57170;43.964;21.262;2023-12-20T10:01:49;49.45;;;42.90;;
69890;SDS011;57170;43.964;21.262;2023-12-20T10:04:16;35.30;;;30.65;;
69890;SDS011;57170;43.964;21.262;2023-12-20T10:06:42;34.40;;;30.63;;
69890;SDS011;57170;43.964;21.262;2023-12-20T10:09:09;31.80;;;25.75;;
69890;SDS011;57170;43.964;21.262;2023-12-20T10:11:36;25.63;;;22.92;;
69890;SDS011;57170;43.964;21.262;2023-12-20T10:14:05;24.20;;;19.67;;
69890;SDS011;57170;43.964;21.262;2023-12-20T10:16:32;26.65;;;22.60;;
69890;SDS011;57170;43.964;21.262;2023-12-20T10:18:58;27.42;;;24.60;;
69890;SDS011;57170;43.964;21.262;2023-12-20T10:21:26;41.38;;;36.20;;
69890;SDS011;57170;43.964;21.262;2023-12-20T10:23:56;43.85;;;38.72;;
69890;SDS011;57170;43.964;21.262;2023-12-20T10:26:23;47.08;;;40.67;;
69890;SDS011;57170;43.964;21.262;2023-12-20T10:28:53;49.42;;;43.67;;
69890;SDS011;57170;43.964;21.262;2023-12-20T10:31:26;48.85;;;43.25;;
69890;SDS011;57170;43.964;21.262;2023-12-20T10:33:52;45.47;;;40.33;;
69890;SDS011;57170;43.964;21.262;2023-12-20T10:36:18;53.58;;;45.63;;
69890;SDS011;57170;43.964;21.262;2023-12-20T10:38:45;63.85;;;52.05;;
69890;SDS011;57170;43.964;21.262;2023-12-20T10:41:12;64.45;;;51.33;;
69890;SDS011;57170;43.964;21.262;2023-12-20T10:43:42;57.00;;;48.20;;
69890;SDS011;57170;43.964;21.262;2023-12-20T10:46:08;56.65;;;47.33;;
69890;SDS011;57170;43.964;21.262;2023-12-20T10:48:34;57.80;;;46.25;;
69890;SDS011;57170;43.964;21.262;2023-12-20T10:51:01;44.90;;;37.20;;
69890;SDS011;57170;43.964;21.262;2023-12-20T10:53:27;45.60;;;33.53;;
69890;SDS011;57170;43.964;21.262;2023-12-20T10:55:55;49.47;;;40.95;;
69890;SDS011;57170;43.964;21.262;2023-12-20T10:58:22;50.45;;;41.05;;
69890;SDS011;57170;43.964;21.262;2023-12-20T11:00:49;49.80;;;41.72;;
69890;SDS011;57170;43.964;21.262;2023-12-20T11:03:16;53.42;;;40.60;;
69890;SDS011;57170;43.964;21.262;2023-12-20T11:13:27;44.60;;;35.78;;
69890;SDS011;57170;43.964;21.262;2023-12-20T11:15:55;41.45;;;34.40;;
69890;SDS011;57170;43.964;21.262;2023-12-20T11:18:27;37.58;;;31.48;;
69890;SDS011;57170;43.964;21.262;2023-12-20T11:20:54;35.45;;;31.40;;
69890;SDS011;57170;43.964;21.262;2023-12-20T11:23:20;37.42;;;30.42;;
69890;SDS011;57170;43.964;21.262;2023-12-20T11:28:16;39.33;;;31.83;;
69890;SDS011;57170;43.964;21.262;2023-12-20T11:30:50;37.55;;;29.40;;
69890;SDS011;57170;43.964;21.262;2023-12-20T11:33:16;37.13;;;29.75;;
69890;SDS011;57170;43.964;21.262;2023-12-20T11:35:43;39.28;;;31.27;;
69890;SDS011;57170;43.964;21.262;2023-12-20T11:38:10;38.45;;;31.45;;
69890;SDS011;57170;43.964;21.262;2023-12-20T11:40:37;40.00;;;32.05;;
69890;SDS011;57170;43.964;21.262;2023-12-20T11:43:03;38.55;;;30.60;;
69890;SDS011;57170;43.964;21.262;2023-12-20T11:45:30;38.33;;;31.58;;
69890;SDS011;57170;43.964;21.262;2023-12-20T11:47:57;41.85;;;32.15;;
69890;SDS011;57170;43.964;21.262;2023-12-20T11:50:23;99.78;;;88.05;;
69890;SDS011;57170;43.964;21.262;2023-12-20T11:52:50;38.22;;;32.90;;
69890;SDS011;57170;43.964;21.262;2023-12-20T11:55:17;39.28;;;33.25;;
69890;SDS011;57170;43.964;21.262;2023-12-20T11:57:43;53.55;;;41.55;;
69890;SDS011;57170;43.964;21.262;2023-12-20T12:00:10;52.92;;;43.47;;
69890;SDS011;57170;43.964;21.262;2023-12-20T12:02:36;59.78;;;45.70;;
69890;SDS011;57170;43.964;21.262;2023-12-20T12:05:02;62.67;;;50.30;;
69890;SDS011;57170;43.964;21.262;2023-12-20T12:07:31;86.35;;;68.47;;
69890;SDS011;57170;43.964;21.262;2023-12-20T12:09:58;57.33;;;41.13;;
69890;SDS011;57170;43.964;21.262;2023-12-20T12:12:24;47.30;;;37.05;;
69890;SDS011;57170;43.964;21.262;2023-12-20T12:14:52;45.22;;;35.83;;
69890;SDS011;57170;43.964;21.262;2023-12-20T12:17:18;44.15;;;36.85;;
69890;SDS011;57170;43.964;21.262;2023-12-20T12:19:44;58.90;;;47.13;;
69890;SDS011;57170;43.964;21.262;2023-12-20T12:22:11;66.38;;;51.15;;
69890;SDS011;57170;43.964;21.262;2023-12-20T12:24:44;71.70;;;55.08;;
69890;SDS011;57170;43.964;21.262;2023-12-20T12:27:11;58.70;;;45.83;;
69890;SDS011;57170;43.964;21.262;2023-12-20T12:29:37;52.25;;;43.55;;
69890;SDS011;57170;43.964;21.262;2023-12-20T12:32:07;56.55;;;43.72;;
69890;SDS011;57170;43.964;21.262;2023-12-20T12:34:36;56.10;;;42.45;;
69890;SDS011;57170;43.964;21.262;2023-12-20T12:37:06;58.13;;;43.78;;
69890;SDS011;57170;43.964;21.262;2023-12-20T12:39:32;51.20;;;41.72;;
69890;SDS011;57170;43.964;21.262;2023-12-20T12:41:58;58.63;;;42.30;;
69890;SDS011;57170;43.964;21.262;2023-12-20T12:44:24;56.53;;;43.75;;
69890;SDS011;57170;43.964;21.262;2023-12-20T12:46:51;55.28;;;44.65;;
69890;SDS011;57170;43.964;21.262;2023-12-20T12:49:19;56.45;;;42.92;;
69890;SDS011;57170;43.964;21.262;2023-12-20T12:51:46;54.67;;;41.05;;
69890;SDS011;57170;43.964;21.262;2023-12-20T12:54:12;50.45;;;40.03;;
69890;SDS011;57170;43.964;21.262;2023-12-20T12:56:40;54.88;;;40.13;;
69890;SDS011;57170;43.964;21.262;2023-12-20T12:59:06;57.47;;;43.08;;
69890;SDS011;57170;43.964;21.262;2023-12-20T13:01:33;47.38;;;37.53;;
69890;SDS011;57170;43.964;21.262;2023-12-20T13:03:59;50.22;;;39.92;;
69890;SDS011;57170;43.964;21.262;2023-12-20T13:06:28;51.63;;;38.88;;
69890;SDS011;57170;43.964;21.262;2023-12-20T13:08:54;53.88;;;36.03;;
69890;SDS011;57170;43.964;21.262;2023-12-20T13:11:20;40.90;;;27.90;;
69890;SDS011;57170;43.964;21.262;2023-12-20T13:13:46;31.15;;;24.63;;
69890;SDS011;57170;43.964;21.262;2023-12-20T13:16:12;35.60;;;26.60;;
69890;SDS011;57170;43.964;21.262;2023-12-20T13:18:39;38.20;;;26.48;;
69890;SDS011;57170;43.964;21.262;2023-12-20T13:21:07;35.65;;;25.85;;
69890;SDS011;57170;43.964;21.262;2023-12-20T13:23:34;38.13;;;22.88;;
69890;SDS011;57170;43.964;21.262;2023-12-20T13:26:00;33.08;;;24.05;;
69890;SDS011;57170;43.964;21.262;2023-12-20T13:28:26;34.58;;;25.58;;
69890;SDS011;57170;43.964;21.262;2023-12-20T13:30:52;32.58;;;26.35;;
69890;SDS011;57170;43.964;21.262;2023-12-20T13:33:18;41.30;;;29.02;;
69890;SDS011;57170;43.964;21.262;2023-12-20T13:35:44;41.10;;;29.23;;
69890;SDS011;57170;43.964;21.262;2023-12-20T13:38:12;43.13;;;29.73;;
69890;SDS011;57170;43.964;21.262;2023-12-20T13:40:38;41.70;;;30.30;;
69890;SDS011;57170;43.964;21.262;2023-12-20T13:43:04;40.08;;;31.33;;
69890;SDS011;57170;43.964;21.262;2023-12-20T13:45:31;48.05;;;35.30;;
69890;SDS011;57170;43.964;21.262;2023-12-20T13:47:58;44.67;;;31.85;;
69890;SDS011;57170;43.964;21.262;2023-12-20T13:50:26;47.95;;;33.30;;
69890;SDS011;57170;43.964;21.262;2023-12-20T13:52:52;51.10;;;36.58;;
69890;SDS011;57170;43.964;21.262;2023-12-20T13:55:18;44.33;;;29.55;;
69890;SDS011;57170;43.964;21.262;2023-12-20T13:57:47;38.28;;;26.67;;
69890;SDS011;57170;43.964;21.262;2023-12-20T14:00:13;33.53;;;25.63;;
69890;SDS011;57170;43.964;21.262;2023-12-20T14:02:40;31.55;;;26.38;;
69890;SDS011;57170;43.964;21.262;2023-12-20T14:05:07;33.90;;;25.80;;
69890;SDS011;57170;43.964;21.262;2023-12-20T14:07:34;40.33;;;27.70;;
69890;SDS011;57170;43.964;21.262;2023-12-20T14:10:00;43.65;;;30.42;;
69890;SDS011;57170;43.964;21.262;2023-12-20T14:12:26;47.08;;;30.17;;